createdAt,value
2023-01-07T00:01:32.547Z,0.77
2023-01-07T00:04:00.889Z,0.50
2023-01-07T00:06:35.836Z,0.40
2023-01-07T00:09:04.410Z,0.37
2023-01-07T00:11:34.127Z,0.67
2023-01-07T00:14:01.131Z,0.60
2023-01-07T00:16:30.136Z,0.47
2023-01-07T00:18:59.003Z,0.57
2023-01-07T00:21:26.943Z,0.40
2023-01-07T00:23:58.315Z,0.60
2023-01-07T00:26:27.436Z,0.50
2023-01-07T00:28:54.365Z,0.50
2023-01-07T00:31:23.285Z,0.80
2023-01-07T00:33:59.522Z,1.43
2023-01-07T00:36:28.025Z,0.40
2023-01-07T00:38:56.890Z,0.60
2023-01-07T00:41:23.731Z,0.40
2023-01-07T00:43:50.288Z,1.07
2023-01-07T00:46:16.880Z,0.70
2023-01-07T00:48:44.841Z,0.80
2023-01-07T00:51:13.261Z,0.50
2023-01-07T00:53:39.766Z,0.40
2023-01-07T00:56:06.417Z,0.77
2023-01-07T00:58:32.911Z,0.97
2023-01-07T01:01:01.360Z,0.93
2023-01-07T01:03:29.311Z,0.50
2023-01-07T01:06:01.538Z,1.00
2023-01-07T01:08:27.930Z,0.60
2023-01-07T01:10:54.316Z,0.60
2023-01-07T01:13:20.722Z,0.80
2023-01-07T01:15:48.955Z,0.53
2023-01-07T01:18:15.739Z,0.70
2023-01-07T01:20:42.618Z,0.80
2023-01-07T01:23:09.213Z,0.70
2023-01-07T01:25:35.715Z,0.70
2023-01-07T01:28:02.458Z,0.90
2023-01-07T01:30:28.873Z,0.47
2023-01-07T01:32:55.311Z,0.67
2023-01-07T01:35:21.693Z,0.50
2023-01-07T01:37:48.124Z,0.70
2023-01-07T01:40:14.909Z,0.77
2023-01-07T01:42:41.284Z,0.60
2023-01-07T01:45:08.072Z,0.67
2023-01-07T01:47:49.491Z,0.70
2023-01-07T01:50:26.224Z,0.60
2023-01-07T01:52:52.604Z,0.50
2023-01-07T01:55:24.039Z,0.63
2023-01-07T01:57:55.193Z,0.77
2023-01-07T02:00:21.695Z,0.50
2023-01-07T02:02:52.493Z,0.50
2023-01-07T02:05:19.106Z,0.40
2023-01-07T02:07:45.461Z,0.70
2023-01-07T02:10:14.504Z,0.50
2023-01-07T02:12:46.812Z,0.40
2023-01-07T02:15:44.926Z,0.80
2023-01-07T02:18:20.072Z,0.40
2023-01-07T02:21:04.694Z,0.73
2023-01-07T02:24:08.857Z,0.33
2023-01-07T02:27:12.537Z,0.30
2023-01-07T02:30:14.577Z,0.40
2023-01-07T02:33:10.486Z,0.70
2023-01-07T02:35:47.027Z,0.40
2023-01-07T02:38:34.496Z,0.80
2023-01-07T02:41:28.942Z,0.50
2023-01-07T02:44:05.037Z,0.30
2023-01-07T02:46:40.163Z,0.73
2023-01-07T02:49:11.553Z,0.40
2023-01-07T02:51:40.652Z,0.50
2023-01-07T02:54:12.626Z,0.80
2023-01-07T02:56:57.360Z,0.40
2023-01-07T02:59:41.554Z,0.53
2023-01-07T03:02:25.992Z,0.37
2023-01-07T03:05:15.462Z,0.40
2023-01-07T03:07:50.593Z,0.30
2023-01-07T03:10:27.050Z,0.30
2023-01-07T03:13:07.355Z,0.40
2023-01-07T03:15:41.716Z,0.60
2023-01-07T03:18:14.600Z,0.40
2023-01-07T03:20:44.114Z,0.60
2023-01-07T03:23:13.865Z,0.50
2023-01-07T03:25:46.484Z,0.33
2023-01-07T03:28:17.678Z,0.30
2023-01-07T03:30:46.747Z,0.77
2023-01-07T03:33:37.126Z,0.50
2023-01-07T03:36:05.078Z,0.43
2023-01-07T03:38:33.945Z,0.33
2023-01-07T03:41:00.358Z,0.50
2023-01-07T03:43:26.826Z,0.50
2023-01-07T03:45:54.166Z,1.03
2023-01-07T03:48:20.575Z,0.30
2023-01-07T03:50:46.948Z,0.50
2023-01-07T03:53:13.415Z,0.30
2023-01-07T03:55:39.829Z,0.57
2023-01-07T03:58:07.099Z,0.30
2023-01-07T04:00:33.524Z,0.40
2023-01-07T04:03:00.316Z,0.40
2023-01-07T04:05:26.845Z,0.47
2023-01-07T04:07:53.229Z,0.60
2023-01-07T04:10:20.494Z,0.50
2023-01-07T04:12:46.963Z,0.50
2023-01-07T04:15:13.335Z,0.30
2023-01-07T04:17:39.748Z,0.50
2023-01-07T04:20:07.895Z,0.30
2023-01-07T04:22:34.488Z,0.50
2023-01-07T04:25:00.913Z,0.63
2023-01-07T04:27:27.383Z,0.30
2023-01-07T04:29:53.746Z,0.93
2023-01-07T04:32:20.097Z,0.33
2023-01-07T04:34:46.454Z,0.30
2023-01-07T04:37:12.811Z,0.30
2023-01-07T04:39:39.264Z,0.30
2023-01-07T04:42:05.742Z,0.30
2023-01-07T04:44:32.216Z,0.40
2023-01-07T04:46:58.602Z,0.40
2023-01-07T04:49:25.195Z,0.40
2023-01-07T04:51:51.664Z,0.40
2023-01-07T04:54:18.017Z,0.40
2023-01-07T04:56:44.403Z,0.30
2023-01-07T04:59:10.813Z,0.43
2023-01-07T05:01:37.378Z,0.50
2023-01-07T05:04:04.184Z,0.40
2023-01-07T05:06:30.619Z,0.30
2023-01-07T05:08:57.169Z,0.27
2023-01-07T05:11:23.607Z,0.43
2023-01-07T05:13:50.080Z,0.30
2023-01-07T05:16:17.039Z,0.40
2023-01-07T05:18:43.577Z,0.30
2023-01-07T05:21:12.809Z,0.40
2023-01-07T05:23:39.271Z,0.47
2023-01-07T05:26:05.964Z,0.30
2023-01-07T05:28:32.322Z,0.40
2023-01-07T05:30:58.816Z,0.50
2023-01-07T05:33:25.265Z,0.37
2023-01-07T05:35:51.661Z,0.47
2023-01-07T05:38:18.128Z,0.30
2023-01-07T05:40:49.800Z,0.40
2023-01-07T05:43:17.195Z,0.43
2023-01-07T05:45:46.943Z,0.30
2023-01-07T05:48:13.886Z,0.30
2023-01-07T05:50:40.318Z,0.50
2023-01-07T05:53:07.123Z,0.50
2023-01-07T05:55:33.611Z,0.40
2023-01-07T05:58:00.029Z,0.50
2023-01-07T06:00:26.445Z,0.50
2023-01-07T06:02:52.950Z,0.30
2023-01-07T06:05:19.386Z,0.47
2023-01-07T06:07:45.956Z,0.40
2023-01-07T06:10:12.362Z,0.50
2023-01-07T06:12:38.881Z,0.50
2023-01-07T06:15:07.219Z,0.70
2023-01-07T06:17:33.988Z,0.53
2023-01-07T06:20:00.585Z,0.50
2023-01-07T06:22:26.974Z,0.40
2023-01-07T06:24:53.332Z,0.30
2023-01-07T06:27:19.710Z,0.53
2023-01-07T06:29:46.111Z,0.30
2023-01-07T06:32:12.498Z,0.30
2023-01-07T06:34:38.844Z,0.53
2023-01-07T06:37:05.798Z,0.30
2023-01-07T06:39:32.213Z,0.57
2023-01-07T06:41:58.644Z,0.60
2023-01-07T06:44:25.171Z,0.27
2023-01-07T06:46:51.583Z,0.40
2023-01-07T06:49:17.944Z,0.30
2023-01-07T06:51:44.350Z,1.07
2023-01-07T06:54:10.937Z,0.40
2023-01-07T06:56:37.325Z,1.73
2023-01-07T06:59:03.756Z,0.30
2023-01-07T07:01:30.298Z,0.73
2023-01-07T07:03:57.021Z,0.40
2023-01-07T07:06:23.407Z,0.30
2023-01-07T07:08:49.817Z,0.30
2023-01-07T07:11:16.262Z,0.27
2023-01-07T07:13:42.613Z,1.13
2023-01-07T07:16:09.061Z,0.33
2023-01-07T07:18:35.526Z,0.93
2023-01-07T07:21:01.922Z,0.37
2023-01-07T07:23:28.341Z,0.30
2023-01-07T07:25:54.748Z,0.40
2023-01-07T07:28:21.190Z,0.47
2023-01-07T07:30:48.405Z,0.20
2023-01-07T07:33:15.729Z,0.97
2023-01-07T07:35:42.359Z,0.60
2023-01-07T07:38:08.966Z,0.40
2023-01-07T07:40:35.536Z,0.57
2023-01-07T07:43:10.666Z,0.30
2023-01-07T07:45:42.405Z,0.70
2023-01-07T07:48:10.346Z,0.30
2023-01-07T07:50:37.040Z,0.73
2023-01-07T07:53:04.210Z,0.50
2023-01-07T07:55:30.865Z,0.60
2023-01-07T07:57:58.363Z,0.40
2023-01-07T08:00:25.154Z,0.40
2023-01-07T08:02:51.612Z,0.50
2023-01-07T08:05:18.055Z,0.47
2023-01-07T08:07:44.500Z,0.30
2023-01-07T08:10:11.057Z,0.40
2023-01-07T08:12:38.460Z,0.50
2023-01-07T08:15:06.418Z,0.40
2023-01-07T08:17:32.984Z,0.60
2023-01-07T08:19:59.504Z,0.60
2023-01-07T08:22:25.933Z,0.60
2023-01-07T08:24:52.269Z,0.50
2023-01-07T08:27:18.728Z,0.37
2023-01-07T08:29:45.155Z,0.30
2023-01-07T08:32:11.554Z,0.40
2023-01-07T08:34:37.952Z,0.67
2023-01-07T08:37:04.367Z,0.53
2023-01-07T08:39:30.744Z,0.33
2023-01-07T08:41:57.202Z,0.30
2023-01-07T08:44:23.610Z,0.40
2023-01-07T08:46:50.064Z,0.43
2023-01-07T08:49:16.513Z,0.30
2023-01-07T08:51:42.853Z,0.30
2023-01-07T08:54:09.248Z,0.80
2023-01-07T08:56:35.644Z,0.77
2023-01-07T08:59:02.066Z,0.50
2023-01-07T09:01:28.519Z,0.63
2023-01-07T09:03:54.953Z,1.13
2023-01-07T09:06:22.095Z,1.07
2023-01-07T09:08:48.992Z,0.63
2023-01-07T09:11:15.584Z,0.40
2023-01-07T09:13:42.364Z,0.50
2023-01-07T09:16:08.863Z,0.87
2023-01-07T09:18:35.390Z,0.50
2023-01-07T09:21:01.821Z,0.67
2023-01-07T09:23:28.297Z,0.20
2023-01-07T09:25:54.687Z,0.47
2023-01-07T09:28:21.089Z,0.50
2023-01-07T09:30:47.485Z,0.40
2023-01-07T09:33:13.902Z,0.50
2023-01-07T09:35:40.250Z,1.50
2023-01-07T09:38:06.622Z,0.47
2023-01-07T09:40:38.592Z,0.50
2023-01-07T09:43:13.986Z,0.70
2023-01-07T09:46:01.358Z,0.70
2023-01-07T09:48:40.462Z,0.40
2023-01-07T09:51:16.017Z,0.60
2023-01-07T09:53:47.549Z,0.60
2023-01-07T09:56:33.855Z,0.30
2023-01-07T09:59:01.650Z,0.30
2023-01-07T10:01:31.898Z,0.30
2023-01-07T10:04:32.568Z,0.30
2023-01-07T10:07:28.267Z,0.30
2023-01-07T10:09:57.415Z,0.47
2023-01-07T10:12:35.642Z,0.30
2023-01-07T10:15:04.783Z,0.30
2023-01-07T10:17:49.936Z,0.40
2023-01-07T10:20:31.956Z,0.60
2023-01-07T10:23:04.705Z,0.30
2023-01-07T10:25:36.024Z,0.50
2023-01-07T10:28:14.021Z,0.67
2023-01-07T10:30:44.541Z,0.30
2023-01-07T10:33:26.905Z,0.20
2023-01-07T10:36:08.907Z,0.30
2023-01-07T10:38:39.780Z,0.40
2023-01-07T10:41:18.110Z,0.30
2023-01-07T10:44:03.916Z,0.50
2023-01-07T10:47:00.004Z,0.80
2023-01-07T10:49:26.282Z,0.20
2023-01-07T10:52:04.696Z,0.30
2023-01-07T10:54:54.475Z,1.10
2023-01-07T10:57:24.586Z,0.40
2023-01-07T10:59:53.729Z,0.63
2023-01-07T11:02:22.949Z,1.03
2023-01-07T11:04:49.547Z,0.97
2023-01-07T11:07:27.646Z,0.60
2023-01-07T11:09:56.911Z,0.50
2023-01-07T11:12:42.637Z,0.53
2023-01-07T11:15:18.978Z,0.47
2023-01-07T11:18:05.591Z,0.87
2023-01-07T11:20:52.212Z,0.40
2023-01-07T11:23:27.936Z,0.93
2023-01-07T11:26:04.460Z,0.93
2023-01-07T11:28:31.719Z,0.33
2023-01-07T11:31:00.048Z,1.03
2023-01-07T11:34:02.958Z,0.87
2023-01-07T11:36:43.152Z,1.00
2023-01-07T11:39:16.978Z,0.77
2023-01-07T11:41:55.654Z,1.93
2023-01-07T11:44:22.514Z,1.00
2023-01-07T11:46:49.512Z,0.97
2023-01-07T11:49:30.756Z,5.03
2023-01-07T11:51:58.500Z,1.40
2023-01-07T11:54:28.196Z,1.00
2023-01-07T11:57:14.153Z,0.73
2023-01-07T11:59:40.622Z,1.23
2023-01-07T12:02:24.680Z,0.90
2023-01-07T12:04:51.139Z,0.87
2023-01-07T12:07:17.762Z,1.03
2023-01-07T12:09:45.487Z,1.30
2023-01-07T12:12:37.101Z,0.97
2023-01-07T12:15:26.990Z,1.13
2023-01-07T12:18:02.431Z,0.97
2023-01-07T12:20:44.113Z,0.90
2023-01-07T12:23:19.905Z,1.33
2023-01-07T12:25:46.245Z,0.73
2023-01-07T12:28:51.027Z,0.90
2023-01-07T12:31:48.482Z,1.03
2023-01-07T12:34:25.053Z,0.90
2023-01-07T12:36:54.320Z,1.60
2023-01-07T12:39:28.967Z,0.97
2023-01-07T12:42:20.070Z,1.37
2023-01-07T12:44:51.423Z,1.20
2023-01-07T12:47:38.310Z,0.60
2023-01-07T12:50:14.522Z,0.67
2023-01-07T12:53:18.397Z,1.13
2023-01-07T12:55:52.187Z,1.60
2023-01-07T12:58:36.094Z,1.47
2023-01-07T13:01:11.722Z,1.00
2023-01-07T13:03:52.340Z,0.97
2023-01-07T13:06:27.972Z,1.20
2023-01-07T13:09:23.484Z,1.13
2023-01-07T13:12:41.513Z,1.17
2023-01-07T13:15:04.996Z,1.23
2023-01-07T13:17:31.866Z,1.00
2023-01-07T13:19:58.314Z,1.13
2023-01-07T13:22:36.411Z,1.67
2023-01-07T13:25:39.753Z,2.20
2023-01-07T13:28:34.838Z,1.00
2023-01-07T13:31:19.539Z,1.67
2023-01-07T13:34:04.167Z,1.30
2023-01-07T13:36:37.723Z,1.33
2023-01-07T13:39:19.055Z,0.70
2023-01-07T13:41:51.138Z,0.87
2023-01-07T13:44:50.120Z,0.93
2023-01-07T13:47:21.362Z,0.40
2023-01-07T13:49:57.641Z,1.17
2023-01-07T13:52:28.070Z,3.67
2023-01-07T13:54:56.869Z,0.93
2023-01-07T13:57:26.252Z,0.60
2023-01-07T14:00:01.009Z,0.80
2023-01-07T14:02:29.357Z,0.70
2023-01-07T14:05:05.077Z,1.03
2023-01-07T14:07:46.038Z,0.93
2023-01-07T14:10:28.927Z,1.50
2023-01-07T14:13:04.266Z,0.60
2023-01-07T14:15:58.549Z,0.90
2023-01-07T14:18:37.679Z,0.90
2023-01-07T14:21:17.689Z,0.57
2023-01-07T14:23:55.371Z,0.87
2023-01-07T14:26:47.414Z,1.10
2023-01-07T14:29:47.524Z,1.10
2023-01-07T14:32:26.323Z,0.90
2023-01-07T14:34:56.135Z,1.27
2023-01-07T14:37:35.736Z,0.73
2023-01-07T14:40:29.223Z,1.53
2023-01-07T14:43:03.531Z,1.53
2023-01-07T14:45:41.986Z,0.70
2023-01-07T14:48:08.354Z,0.67
2023-01-07T14:50:47.043Z,0.87
2023-01-07T14:53:16.466Z,0.60
2023-01-07T14:56:29.374Z,1.07
2023-01-07T14:59:34.159Z,0.60
2023-01-07T15:02:32.032Z,0.90
2023-01-07T15:05:24.792Z,1.80
2023-01-07T15:08:17.248Z,1.17
2023-01-07T15:11:04.530Z,0.70
2023-01-07T15:13:52.028Z,0.77
2023-01-07T15:16:21.543Z,1.03
2023-01-07T15:18:50.781Z,1.00
2023-01-07T15:21:38.457Z,0.90
2023-01-07T15:24:21.883Z,0.67
2023-01-07T15:27:01.347Z,0.80
2023-01-07T15:29:54.608Z,2.53
2023-01-07T15:32:27.593Z,1.30
2023-01-07T15:34:54.297Z,0.80
2023-01-07T15:37:21.266Z,1.27
2023-01-07T15:39:57.755Z,1.33
2023-01-07T15:42:26.727Z,2.00
2023-01-07T15:45:02.007Z,4.60
2023-01-07T15:47:36.876Z,3.87
2023-01-07T15:50:24.157Z,5.40
2023-01-07T15:53:03.806Z,4.00
2023-01-07T15:55:36.844Z,1.60
2023-01-07T15:58:06.382Z,1.93
2023-01-07T16:00:34.777Z,7.83
2023-01-07T16:03:02.691Z,2.90
2023-01-07T16:05:29.349Z,2.60
2023-01-07T16:08:01.061Z,1.47
2023-01-07T16:10:28.686Z,1.43
2023-01-07T16:12:57.509Z,2.17
2023-01-07T16:15:25.761Z,1.97
2023-01-07T16:17:56.919Z,1.37
2023-01-07T16:20:29.544Z,0.93
2023-01-07T16:23:23.542Z,1.27
2023-01-07T16:25:56.835Z,2.10
2023-01-07T16:28:30.743Z,4.10
2023-01-07T16:30:57.913Z,6.10
2023-01-07T16:33:28.283Z,2.00
2023-01-07T16:35:58.772Z,1.50
2023-01-07T16:38:25.998Z,1.80
2023-01-07T16:40:53.082Z,1.60
2023-01-07T16:43:42.141Z,1.40
2023-01-07T16:46:15.828Z,1.80
2023-01-07T16:48:42.319Z,1.70
2023-01-07T16:51:46.021Z,1.77
2023-01-07T16:54:34.579Z,1.87
2023-01-07T16:57:00.931Z,2.30
2023-01-07T16:59:34.193Z,1.30
2023-01-07T17:02:12.007Z,1.63
2023-01-07T17:04:38.681Z,3.70
2023-01-07T17:07:06.707Z,1.37
2023-01-07T17:09:36.677Z,0.70
2023-01-07T17:12:03.995Z,1.07
2023-01-07T17:14:33.326Z,1.17
2023-01-07T17:17:20.153Z,1.50
2023-01-07T17:19:52.533Z,1.00
2023-01-07T17:22:29.734Z,2.80
2023-01-07T17:25:08.622Z,1.47
2023-01-07T17:27:40.439Z,1.60
2023-01-07T17:30:07.606Z,2.27
2023-01-07T17:32:36.834Z,2.30
2023-01-07T17:35:04.414Z,1.93
2023-01-07T17:37:31.751Z,4.47
2023-01-07T17:39:58.209Z,2.67
2023-01-07T17:42:47.573Z,2.40
2023-01-07T17:45:16.735Z,1.27
2023-01-07T17:47:43.199Z,3.40
2023-01-07T17:50:13.127Z,1.03
2023-01-07T17:52:40.682Z,1.37
2023-01-07T17:55:07.324Z,1.97
2023-01-07T17:57:33.665Z,2.10
2023-01-07T18:00:00.224Z,0.70
2023-01-07T18:02:30.206Z,1.30
2023-01-07T18:04:56.655Z,2.23
2023-01-07T18:07:23.154Z,1.10
2023-01-07T18:09:49.600Z,2.10
2023-01-07T18:12:30.341Z,1.90
2023-01-07T18:14:58.390Z,2.60
2023-01-07T18:17:25.645Z,2.73
2023-01-07T18:19:52.212Z,6.70
2023-01-07T18:22:18.656Z,4.70
2023-01-07T18:24:45.072Z,1.07
2023-01-07T18:27:18.590Z,2.00
2023-01-07T18:29:44.993Z,1.80
2023-01-07T18:32:11.645Z,1.70
2023-01-07T18:34:38.091Z,1.07
2023-01-07T18:37:04.527Z,1.83
2023-01-07T18:39:30.904Z,1.77
2023-01-07T18:41:57.350Z,1.80
2023-01-07T18:44:24.162Z,1.30
2023-01-07T18:46:50.631Z,3.20
2023-01-07T18:49:17.088Z,1.43
2023-01-07T18:51:46.524Z,2.87
2023-01-07T18:54:12.916Z,1.53
2023-01-07T18:56:40.336Z,1.60
2023-01-07T18:59:06.728Z,1.33
2023-01-07T19:01:33.233Z,1.80
2023-01-07T19:03:59.724Z,1.73
2023-01-07T19:06:26.685Z,2.83
2023-01-07T19:08:54.196Z,1.97
2023-01-07T19:11:20.590Z,1.30
2023-01-07T19:13:46.999Z,2.10
2023-01-07T19:16:14.000Z,1.90
2023-01-07T19:18:40.617Z,1.53
2023-01-07T19:21:10.443Z,1.77
2023-01-07T19:23:37.024Z,0.67
2023-01-07T19:26:06.763Z,2.90
2023-01-07T19:28:33.238Z,1.90
2023-01-07T19:31:03.613Z,1.57
2023-01-07T19:33:29.974Z,1.70
2023-01-07T19:36:01.394Z,1.70
2023-01-07T19:38:27.848Z,1.10
2023-01-07T19:40:54.237Z,2.17
2023-01-07T19:43:20.651Z,2.37
2023-01-07T19:45:55.385Z,1.47
2023-01-07T19:48:22.963Z,1.53
2023-01-07T19:50:57.132Z,1.53
2023-01-07T19:53:24.338Z,1.10
2023-01-07T19:55:52.353Z,1.97
2023-01-07T19:58:18.729Z,1.83
2023-01-07T20:00:45.176Z,2.40
2023-01-07T20:03:11.847Z,3.43
2023-01-07T20:05:38.881Z,4.23
2023-01-07T20:08:05.607Z,8.30
2023-01-07T20:10:32.127Z,5.50
2023-01-07T20:12:58.602Z,2.80
2023-01-07T20:15:25.034Z,4.73
2023-01-07T20:17:51.396Z,1.47
2023-01-07T20:20:17.797Z,1.97
2023-01-07T20:22:45.157Z,1.63
2023-01-07T20:25:12.367Z,2.33
2023-01-07T20:27:38.822Z,2.30
2023-01-07T20:30:06.878Z,1.90
2023-01-07T20:32:33.699Z,2.17
2023-01-07T20:35:00.270Z,1.70
2023-01-07T20:37:28.099Z,1.47
2023-01-07T20:39:55.187Z,1.27
2023-01-07T20:42:21.773Z,0.80
2023-01-07T20:44:48.203Z,0.60
2023-01-07T20:47:14.799Z,0.83
2023-01-07T20:49:41.410Z,0.60
2023-01-07T20:52:07.821Z,1.30
2023-01-07T20:54:34.201Z,1.30
2023-01-07T20:57:00.655Z,1.33
2023-01-07T20:59:27.107Z,1.10
2023-01-07T21:01:53.674Z,1.10
2023-01-07T21:04:20.113Z,2.07
2023-01-07T21:06:46.510Z,1.20
2023-01-07T21:09:13.035Z,3.40
2023-01-07T21:11:40.602Z,4.63
2023-01-07T21:14:07.063Z,5.50
2023-01-07T21:16:33.463Z,3.17
2023-01-07T21:19:00.303Z,3.07
2023-01-07T21:21:26.809Z,2.80
2023-01-07T21:23:54.179Z,1.70
2023-01-07T21:26:21.402Z,2.80
2023-01-07T21:28:47.875Z,4.43
2023-01-07T21:31:16.361Z,3.63
2023-01-07T21:33:43.332Z,4.53
2023-01-07T21:36:18.721Z,2.23
2023-01-07T21:38:46.459Z,3.90
2023-01-07T21:41:15.877Z,3.70
2023-01-07T21:43:43.227Z,3.67
2023-01-07T21:46:10.055Z,2.30
2023-01-07T21:48:39.402Z,4.13
2023-01-07T21:51:08.517Z,4.47
2023-01-07T21:53:35.524Z,3.83
2023-01-07T21:56:10.407Z,4.30
2023-01-07T21:58:37.475Z,4.00
2023-01-07T22:01:05.692Z,3.80
2023-01-07T22:03:32.749Z,4.10
2023-01-07T22:06:05.301Z,4.60
2023-01-07T22:08:32.094Z,2.13
2023-01-07T22:10:58.503Z,3.27
2023-01-07T22:13:25.074Z,3.07
2023-01-07T22:15:51.746Z,1.90
2023-01-07T22:18:18.129Z,2.43
2023-01-07T22:20:44.505Z,3.47
2023-01-07T22:23:17.177Z,2.33
2023-01-07T22:25:43.558Z,1.57
2023-01-07T22:28:10.290Z,1.83
2023-01-07T22:30:40.591Z,1.60
2023-01-07T22:33:07.020Z,1.33
2023-01-07T22:35:34.024Z,2.23
2023-01-07T22:38:01.935Z,1.73
2023-01-07T22:40:32.537Z,1.47
2023-01-07T22:43:05.981Z,1.77
2023-01-07T22:45:38.288Z,1.80
2023-01-07T22:48:05.546Z,1.70
2023-01-07T22:50:32.081Z,1.57
2023-01-07T22:52:58.579Z,1.30
2023-01-07T22:55:25.056Z,2.03
2023-01-07T22:57:51.524Z,2.00
2023-01-07T23:00:38.642Z,2.03
2023-01-07T23:03:05.218Z,5.20
2023-01-07T23:05:31.966Z,5.57
2023-01-07T23:07:58.845Z,3.53
2023-01-07T23:10:25.208Z,3.87
2023-01-07T23:12:51.607Z,5.50
2023-01-07T23:15:17.987Z,2.13
2023-01-07T23:17:44.352Z,4.13
2023-01-07T23:20:11.385Z,6.63
2023-01-07T23:22:37.791Z,2.37
2023-01-07T23:25:04.657Z,1.60
2023-01-07T23:27:30.988Z,2.80
2023-01-07T23:29:58.540Z,2.53
2023-01-07T23:32:25.043Z,2.07
2023-01-07T23:34:51.499Z,1.47
2023-01-07T23:37:17.839Z,5.43
2023-01-07T23:39:44.322Z,1.80
2023-01-07T23:42:10.746Z,2.63
2023-01-07T23:44:37.156Z,1.93
2023-01-07T23:47:03.689Z,1.53
2023-01-07T23:49:31.815Z,4.10
2023-01-07T23:51:59.375Z,2.80
2023-01-07T23:54:25.769Z,1.67
2023-01-07T23:56:52.404Z,3.00
2023-01-07T23:59:18.820Z,4.50
